createdAt,value
2019-04-27T00:00:00.130Z,967.36
2019-04-27T00:00:59.134Z,966.9
2019-04-27T00:01:59.115Z,966.6
2019-04-27T00:03:01.923Z,966.25
2019-04-27T00:03:59.166Z,965.61
2019-04-27T00:04:59.136Z,965.91
2019-04-27T00:05:59.118Z,965.42
2019-04-27T00:06:59.129Z,965.64
2019-04-27T00:07:59.436Z,965.39
2019-04-27T00:08:59.134Z,964.91
2019-04-27T00:09:59.123Z,964.35
2019-04-27T00:10:59.690Z,963.65
2019-04-27T00:11:59.141Z,963.44
2019-04-27T00:13:02.038Z,962.29
2019-04-27T00:13:59.182Z,961.34
2019-04-27T00:14:59.152Z,960.66
2019-04-27T00:15:59.131Z,960.08
2019-04-27T00:16:59.157Z,959.62
2019-04-27T00:17:59.161Z,958.93
2019-04-27T00:18:59.155Z,958.32
2019-04-27T00:19:59.173Z,957.66
2019-04-27T00:20:59.161Z,956.82
2019-04-27T00:21:59.170Z,956.39
2019-04-27T00:22:59.151Z,955.55
2019-04-27T00:23:59.165Z,955.35
2019-04-27T00:24:59.165Z,954.48
2019-04-27T00:25:59.174Z,954.19
2019-04-27T00:26:59.163Z,953.92
2019-04-27T00:27:59.149Z,953.74
2019-04-27T00:28:59.177Z,953.02
2019-04-27T00:29:59.166Z,952.94
2019-04-27T00:30:59.170Z,952.78
2019-04-27T00:31:59.190Z,952.75
2019-04-27T00:32:59.182Z,952.56
2019-04-27T00:33:59.212Z,952.07
2019-04-27T00:34:59.175Z,952.08
2019-04-27T00:35:59.220Z,951.98
2019-04-27T00:36:59.196Z,951.74
2019-04-27T00:37:59.191Z,951.75
2019-04-27T00:38:59.179Z,951.56
2019-04-27T00:39:59.169Z,951.31
2019-04-27T00:40:59.201Z,950.96
2019-04-27T00:41:59.210Z,950.97
2019-04-27T00:42:59.206Z,950.85
2019-04-27T00:43:59.207Z,950.82
2019-04-27T00:44:59.197Z,950.21
2019-04-27T00:45:59.181Z,949.54
2019-04-27T00:46:59.209Z,949.54
2019-04-27T00:47:59.746Z,948.8
2019-04-27T00:48:59.212Z,949
2019-04-27T00:49:59.189Z,948.63
2019-04-27T00:50:59.213Z,948.45
2019-04-27T00:51:59.183Z,948.65
2019-04-27T00:52:59.322Z,948.47
2019-04-27T00:53:59.210Z,948.47
2019-04-27T00:54:59.219Z,948.8
2019-04-27T00:55:59.240Z,948.74
2019-04-27T00:56:59.213Z,948.48
2019-04-27T00:57:59.200Z,948.67
2019-04-27T00:58:59.223Z,948.93
2019-04-27T00:59:59.229Z,948.63
2019-04-27T01:00:59.207Z,949.66
2019-04-27T01:01:59.229Z,949.65
2019-04-27T01:02:59.294Z,950.08
2019-04-27T01:03:59.226Z,950.32
2019-04-27T01:04:59.231Z,950.63
2019-04-27T01:05:59.213Z,950.67
2019-04-27T01:06:59.222Z,950.86
2019-04-27T01:07:59.211Z,951.18
2019-04-27T01:08:59.239Z,951.64
2019-04-27T01:09:59.261Z,952.15
2019-04-27T01:10:59.227Z,951.96
2019-04-27T01:11:59.238Z,952.37
2019-04-27T01:12:59.219Z,952.75
2019-04-27T01:13:59.248Z,952.78
2019-04-27T01:14:59.219Z,952.86
2019-04-27T01:15:59.250Z,952.77
2019-04-27T01:16:59.834Z,952.72
2019-04-27T01:18:11.425Z,952.94
2019-04-27T01:18:59.306Z,952.42
2019-04-27T01:19:59.578Z,952.51
2019-04-27T01:20:59.257Z,952.4
2019-04-27T01:21:59.247Z,952.44
2019-04-27T01:22:59.476Z,952.66
2019-04-27T01:23:59.238Z,952.98
2019-04-27T01:24:59.455Z,952.94
2019-04-27T01:25:59.695Z,953.65
2019-04-27T01:26:59.983Z,953.56
2019-04-27T01:27:59.670Z,954
2019-04-27T01:28:59.279Z,954.07
2019-04-27T01:29:59.295Z,953.69
2019-04-27T01:31:00.597Z,953.32
2019-04-27T01:31:59.259Z,953.69
2019-04-27T01:32:59.559Z,952.88
2019-04-27T01:33:59.263Z,952.58
2019-04-27T01:34:59.611Z,952.26
2019-04-27T01:35:59.280Z,951.74
2019-04-27T01:36:59.547Z,951.2
2019-04-27T01:37:59.276Z,950.81
2019-04-27T01:38:59.553Z,950.12
2019-04-27T01:39:59.262Z,949.93
2019-04-27T01:41:00.560Z,948.82
2019-04-27T01:41:59.278Z,948.54
2019-04-27T01:42:59.292Z,948.01
2019-04-27T01:43:59.410Z,946.8
2019-04-27T01:44:59.523Z,946.7
2019-04-27T01:46:00.989Z,945.9
2019-04-27T01:46:59.862Z,945.69
2019-04-27T01:47:59.620Z,945.04
2019-04-27T01:48:59.296Z,944.8
2019-04-27T01:49:59.306Z,944.3
2019-04-27T01:50:59.437Z,944.07
2019-04-27T01:51:59.529Z,943.73
2019-04-27T01:52:59.671Z,943.59
2019-04-27T01:53:59.463Z,943.6
2019-04-27T01:54:59.528Z,943.26
2019-04-27T01:55:59.345Z,942.9
2019-04-27T01:57:00.937Z,942.98
2019-04-27T01:57:59.297Z,942.71
2019-04-27T01:58:59.569Z,942.99
2019-04-27T01:59:59.308Z,943.29
2019-04-27T02:00:59.484Z,943.02
2019-04-27T02:01:59.302Z,943.4
2019-04-27T02:02:59.572Z,943.86
2019-04-27T02:03:59.296Z,943.67
2019-04-27T02:04:59.734Z,943.98
2019-04-27T02:05:59.387Z,944.09
2019-04-27T02:06:59.400Z,944.2
2019-04-27T02:07:59.389Z,944.26
2019-04-27T02:08:59.569Z,944.34
2019-04-27T02:09:59.335Z,944.62
2019-04-27T02:10:59.477Z,944.37
2019-04-27T02:11:59.323Z,944.37
2019-04-27T02:12:59.314Z,944.44
2019-04-27T02:13:59.506Z,944
2019-04-27T02:14:59.311Z,944.12
2019-04-27T02:15:59.342Z,944.15
2019-04-27T02:16:59.550Z,943.6
2019-04-27T02:17:59.741Z,943.86
2019-04-27T02:18:59.358Z,943.8
2019-04-27T02:19:59.542Z,943.38
2019-04-27T02:20:59.330Z,943.42
2019-04-27T02:21:59.805Z,943.44
2019-04-27T02:22:59.344Z,943.63
2019-04-27T02:23:59.864Z,943.93
2019-04-27T02:24:59.338Z,943.74
2019-04-27T02:25:59.339Z,943.56
2019-04-27T02:26:59.330Z,943.89
2019-04-27T02:27:59.385Z,944.1
2019-04-27T02:28:59.360Z,944.08
2019-04-27T02:29:59.354Z,944.58
2019-04-27T02:31:01.742Z,944.34
2019-04-27T02:32:01.103Z,945.04
2019-04-27T02:32:59.389Z,945.06
2019-04-27T02:33:59.574Z,945.83
2019-04-27T02:35:00.091Z,945.57
2019-04-27T02:36:00.272Z,945.4
2019-04-27T02:37:02.458Z,945.18
2019-04-27T02:38:00.393Z,944.5
2019-04-27T02:38:59.613Z,944.38
2019-04-27T02:39:59.960Z,944.14
2019-04-27T02:40:59.937Z,943.43
2019-04-27T02:42:00.155Z,943.15
2019-04-27T02:42:59.876Z,943.06
2019-04-27T02:44:01.635Z,943.07
2019-04-27T02:44:59.856Z,943.08
2019-04-27T02:46:00.364Z,942.68
2019-04-27T02:47:00.278Z,942.72
2019-04-27T02:47:59.769Z,942.82
2019-04-27T02:49:01.222Z,942.8
2019-04-27T02:50:00.594Z,942.65
2019-04-27T02:50:59.932Z,942.64
2019-04-27T02:51:59.600Z,942.87
2019-04-27T02:52:59.843Z,942.74
2019-04-27T02:54:00.074Z,942.92
2019-04-27T02:54:59.501Z,942.8
2019-04-27T02:55:59.628Z,943.42
2019-04-27T02:56:59.586Z,943.39
2019-04-27T02:57:59.904Z,943.56
2019-04-27T02:58:59.700Z,943.63
2019-04-27T03:00:00.088Z,943.87
2019-04-27T03:00:59.445Z,943.74
2019-04-27T03:02:00.704Z,943.98
2019-04-27T03:03:02.181Z,943.88
2019-04-27T03:04:00.186Z,944.22
2019-04-27T03:05:00.546Z,944.17
2019-04-27T03:05:59.851Z,944.51
2019-04-27T03:07:00.219Z,944.41
2019-04-27T03:07:59.919Z,945.03
2019-04-27T03:09:00.254Z,945.01
2019-04-27T03:10:02.041Z,944.84
2019-04-27T03:11:01.160Z,945.42
2019-04-27T03:11:59.564Z,945.29
2019-04-27T03:13:00.058Z,945.72
2019-04-27T03:13:59.912Z,945.61
2019-04-27T03:14:59.707Z,945.78
2019-04-27T03:16:00.406Z,945.95
2019-04-27T03:17:00.139Z,945.7
2019-04-27T03:17:59.730Z,945.96
2019-04-27T03:19:11.191Z,946.17
2019-04-27T03:19:59.810Z,946.16
2019-04-27T03:21:00.283Z,946.27
2019-04-27T03:21:59.553Z,946.61
2019-04-27T03:23:00.017Z,946.5
2019-04-27T03:24:00.170Z,946.1
2019-04-27T03:25:00.116Z,945.41
2019-04-27T03:26:00.275Z,945.2
2019-04-27T03:27:00.434Z,944.23
2019-04-27T03:28:00.076Z,943.41
2019-04-27T03:28:59.984Z,942.7
2019-04-27T03:29:59.792Z,942.26
2019-04-27T03:31:02.341Z,941.66
2019-04-27T03:32:01.845Z,941.21
2019-04-27T03:33:02.835Z,940.76
2019-04-27T03:34:04.726Z,940.3
2019-04-27T03:35:02.539Z,939.83
2019-04-27T03:36:02.497Z,939.15
2019-04-27T03:36:59.800Z,938.9
2019-04-27T03:38:00.481Z,938.63
2019-04-27T03:38:59.993Z,938.09
2019-04-27T03:40:00.107Z,937.24
2019-04-27T03:41:00.447Z,936.61
2019-04-27T03:42:00.165Z,936.44
2019-04-27T03:42:59.880Z,936.26
2019-04-27T03:43:59.648Z,935.85
2019-04-27T03:45:00.513Z,935.63
2019-04-27T03:46:00.385Z,935.33
2019-04-27T03:46:59.663Z,934.86
2019-04-27T03:48:00.352Z,934.39
2019-04-27T03:49:00.064Z,933.86
2019-04-27T03:50:00.021Z,934.41
2019-04-27T03:50:59.705Z,934.1
2019-04-27T03:52:00.219Z,934.4
2019-04-27T03:52:59.998Z,935.23
2019-04-27T03:54:00.372Z,935.03
2019-04-27T03:54:59.881Z,935.32
2019-04-27T03:56:00.023Z,935.36
2019-04-27T03:57:02.282Z,935.47
2019-04-27T03:58:00.187Z,934.92
2019-04-27T03:58:59.831Z,934.81
2019-04-27T03:59:59.891Z,934.21
2019-04-27T04:01:00.084Z,934.57
2019-04-27T04:02:02.338Z,934.58
2019-04-27T04:03:00.497Z,934.67
2019-04-27T04:04:00.016Z,935.18
2019-04-27T04:04:59.824Z,935.48
2019-04-27T04:06:00.201Z,935.71
2019-04-27T04:06:59.646Z,935.04
2019-04-27T04:08:00.392Z,935.52
2019-04-27T04:09:00.156Z,935.1
2019-04-27T04:10:00.170Z,934.93
2019-04-27T04:10:59.659Z,935
2019-04-27T04:12:02.213Z,935.09
2019-04-27T04:13:01.231Z,934.72
2019-04-27T04:14:00.243Z,934.72
2019-04-27T04:14:59.931Z,935.11
2019-04-27T04:16:00.289Z,934.99
2019-04-27T04:17:02.624Z,934.93
2019-04-27T04:17:59.631Z,934.52
2019-04-27T04:19:00.709Z,934.46
2019-04-27T04:20:01.111Z,934.48
2019-04-27T04:21:00.396Z,934.32
2019-04-27T04:21:59.903Z,934.2
2019-04-27T04:23:00.139Z,934.26
2019-04-27T04:24:00.793Z,933.45
2019-04-27T04:24:59.975Z,933.27
2019-04-27T04:25:59.920Z,932.64
2019-04-27T04:27:00.006Z,932.38
2019-04-27T04:28:00.532Z,931.64
2019-04-27T04:28:59.900Z,931.52
2019-04-27T04:29:59.651Z,930.61
2019-04-27T04:31:00.439Z,929.78
2019-04-27T04:32:00.438Z,929.12
2019-04-27T04:32:59.995Z,928.53
2019-04-27T04:33:59.953Z,928.1
2019-04-27T04:35:01.272Z,928.09
2019-04-27T04:35:59.789Z,928.77
2019-04-27T04:37:00.397Z,928.39
2019-04-27T04:38:00.162Z,928.66
2019-04-27T04:39:00.397Z,929.25
2019-04-27T04:39:59.846Z,929.65
2019-04-27T04:40:59.576Z,930.29
2019-04-27T04:41:59.879Z,930.77
2019-04-27T04:43:00.264Z,931.58
2019-04-27T04:43:59.945Z,931.97
2019-04-27T04:45:02.133Z,932.4
2019-04-27T04:45:59.700Z,932.59
2019-04-27T04:47:00.300Z,932.6
2019-04-27T04:47:59.752Z,932.45
2019-04-27T04:49:00.175Z,932.05
2019-04-27T04:50:08.349Z,931.48
2019-04-27T04:51:00.023Z,931.27
2019-04-27T04:51:59.694Z,930.49
2019-04-27T04:52:59.990Z,930.48
2019-04-27T04:53:59.874Z,930.01
2019-04-27T04:55:02.440Z,929.79
2019-04-27T04:56:00.321Z,929.57
2019-04-27T04:56:59.617Z,929.33
2019-04-27T04:57:59.584Z,929.41
2019-04-27T04:59:00.103Z,929.11
2019-04-27T04:59:59.568Z,929.15
2019-04-27T05:01:01.706Z,928.97
2019-04-27T05:02:02.127Z,929.12
2019-04-27T05:02:59.698Z,929.51
2019-04-27T05:03:59.597Z,929.62
2019-04-27T05:04:59.602Z,929.85
2019-04-27T05:05:59.588Z,929.87
2019-04-27T05:06:59.596Z,929.79
2019-04-27T05:08:00.670Z,930.49
2019-04-27T05:08:59.637Z,930.46
2019-04-27T05:09:59.577Z,931.01
2019-04-27T05:10:59.777Z,931.05
2019-04-27T05:11:59.633Z,930.98
2019-04-27T05:12:59.618Z,931.71
2019-04-27T05:14:01.484Z,931.5
2019-04-27T05:14:59.610Z,932
2019-04-27T05:15:59.903Z,932.12
2019-04-27T05:16:59.595Z,932.34
2019-04-27T05:17:59.603Z,932.46
2019-04-27T05:18:59.635Z,933.39
2019-04-27T05:19:59.614Z,933.73
2019-04-27T05:20:59.600Z,934.66
2019-04-27T05:21:59.606Z,935.21
2019-04-27T05:22:59.612Z,935.51
2019-04-27T05:24:00.711Z,936.23
2019-04-27T05:24:59.633Z,936.37
2019-04-27T05:25:59.612Z,936.51
2019-04-27T05:26:59.620Z,937.12
2019-04-27T05:27:59.745Z,937.55
2019-04-27T05:28:59.611Z,937.85
2019-04-27T05:30:00.203Z,938.79
2019-04-27T05:31:00.547Z,939.79
2019-04-27T05:31:59.632Z,941.02
2019-04-27T05:32:59.617Z,941.73
2019-04-27T05:33:59.625Z,942.23
2019-04-27T05:34:59.729Z,943.23
2019-04-27T05:35:59.621Z,943.72
2019-04-27T05:37:01.103Z,944.91
2019-04-27T05:38:00.774Z,945.12
2019-04-27T05:38:59.790Z,946.26
2019-04-27T05:39:59.645Z,947.25
2019-04-27T05:40:59.629Z,948.04
2019-04-27T05:41:59.890Z,949.12
2019-04-27T05:42:59.651Z,949.98
2019-04-27T05:44:03.137Z,950.86
2019-04-27T05:44:59.729Z,951.87
2019-04-27T05:46:01.072Z,952.42
2019-04-27T05:46:59.673Z,952.65
2019-04-27T05:48:00.694Z,953.14
2019-04-27T05:49:05.945Z,953.37
2019-04-27T05:49:59.671Z,953.92
2019-04-27T05:51:04.567Z,954.48
2019-04-27T05:51:59.660Z,954.9
2019-04-27T05:52:59.759Z,955.72
2019-04-27T05:54:03.513Z,955.59
2019-04-27T05:54:59.670Z,956.4
2019-04-27T05:55:59.693Z,956.27
2019-04-27T05:56:59.658Z,956.25
2019-04-27T05:57:59.655Z,956.65
2019-04-27T05:59:00.284Z,956.54
2019-04-27T06:00:02.000Z,956.57
2019-04-27T06:00:59.685Z,956.46
2019-04-27T06:01:59.729Z,956.6
2019-04-27T06:03:11.385Z,956.37
2019-04-27T06:03:59.658Z,956.34
2019-04-27T06:05:00.180Z,956.61
2019-04-27T06:06:01.684Z,956.32
2019-04-27T06:07:00.979Z,956.67
2019-04-27T06:08:00.613Z,956.7
2019-04-27T06:09:00.658Z,957.03
2019-04-27T06:10:00.561Z,957.01
2019-04-27T06:11:00.646Z,957.37
2019-04-27T06:12:00.775Z,957.62
2019-04-27T06:13:01.052Z,958.2
2019-04-27T06:14:03.021Z,958.25
2019-04-27T06:15:00.303Z,958.62
2019-04-27T06:16:00.721Z,959.34
2019-04-27T06:17:00.677Z,959.65
2019-04-27T06:17:59.749Z,959.8
2019-04-27T06:18:59.766Z,959.83
2019-04-27T06:19:59.863Z,960.15
2019-04-27T06:20:59.918Z,960.67
2019-04-27T06:22:01.301Z,961.17
2019-04-27T06:22:59.699Z,961.06
2019-04-27T06:23:59.698Z,961.6
2019-04-27T06:25:00.373Z,962.37
2019-04-27T06:26:01.743Z,962.84
2019-04-27T06:26:59.863Z,963.42
2019-04-27T06:28:01.343Z,963.8
2019-04-27T06:28:59.718Z,964.82
2019-04-27T06:29:59.728Z,965.1
2019-04-27T06:30:59.707Z,965.67
2019-04-27T06:31:59.711Z,965.73
2019-04-27T06:32:59.756Z,965.74
2019-04-27T06:33:59.888Z,965.59
2019-04-27T06:35:05.799Z,965.81
2019-04-27T06:36:01.780Z,965.27
2019-04-27T06:36:59.985Z,965.27
2019-04-27T06:37:59.711Z,964.94
2019-04-27T06:39:00.029Z,964.5
2019-04-27T06:39:59.981Z,964.84
2019-04-27T06:41:01.386Z,964.86
2019-04-27T06:42:01.244Z,964.58
2019-04-27T06:42:59.745Z,965.01
2019-04-27T06:44:09.325Z,965.18
2019-04-27T06:45:00.106Z,965.27
2019-04-27T06:45:59.722Z,965.37
2019-04-27T06:46:59.869Z,965.85
2019-04-27T06:47:59.743Z,965.67
2019-04-27T06:48:59.866Z,966.06
2019-04-27T06:49:59.894Z,966.62
2019-04-27T06:51:03.464Z,966.82
2019-04-27T06:51:59.869Z,967.33
2019-04-27T06:53:00.084Z,967.48
2019-04-27T06:53:59.881Z,967.72
2019-04-27T06:55:00.586Z,967.98
2019-04-27T06:55:59.928Z,968.67
2019-04-27T06:56:59.894Z,968.74
2019-04-27T06:57:59.797Z,969.16
2019-04-27T06:58:59.847Z,970.19
2019-04-27T06:59:59.756Z,971.12
2019-04-27T07:00:59.756Z,971.42
2019-04-27T07:02:00.855Z,972.7
2019-04-27T07:02:59.814Z,973.49
2019-04-27T07:03:59.900Z,974.23
2019-04-27T07:04:59.769Z,975.06
2019-04-27T07:05:59.776Z,975.56
2019-04-27T07:07:01.653Z,975.94
2019-04-27T07:07:59.774Z,975.99
2019-04-27T07:08:59.893Z,976.86
2019-04-27T07:09:59.783Z,976.81
2019-04-27T07:10:59.838Z,977.18
2019-04-27T07:11:59.848Z,977.74
2019-04-27T07:12:59.851Z,978.2
2019-04-27T07:14:09.548Z,978.8
2019-04-27T07:14:59.801Z,978.69
2019-04-27T07:16:01.527Z,979.28
2019-04-27T07:16:59.792Z,979.05
2019-04-27T07:17:59.790Z,979.36
2019-04-27T07:18:59.795Z,979.52
2019-04-27T07:19:59.826Z,979.93
2019-04-27T07:20:59.785Z,980.74
2019-04-27T07:21:59.786Z,981.34
2019-04-27T07:22:59.786Z,982.34
2019-04-27T07:24:01.983Z,983.21
2019-04-27T07:24:59.797Z,984.02
2019-04-27T07:25:59.958Z,984.78
2019-04-27T07:26:59.863Z,985.7
2019-04-27T07:27:59.797Z,986.32
2019-04-27T07:28:59.936Z,986.95
2019-04-27T07:30:11.719Z,987.29
2019-04-27T07:30:59.801Z,987.75
2019-04-27T07:31:59.892Z,988.34
2019-04-27T07:33:00.355Z,989.26
2019-04-27T07:33:59.845Z,989.79
2019-04-27T07:35:11.905Z,990.05
2019-04-27T07:36:00.770Z,990.72
2019-04-27T07:36:59.944Z,991.36
2019-04-27T07:37:59.823Z,991.85
2019-04-27T07:39:00.781Z,992.74
2019-04-27T07:40:00.185Z,993.37
2019-04-27T07:41:00.770Z,994.31
2019-04-27T07:41:59.868Z,995.68
2019-04-27T07:42:59.817Z,996.5
2019-04-27T07:44:00.626Z,997.32
2019-04-27T07:45:00.836Z,998.8
2019-04-27T07:46:00.489Z,999.97
2019-04-27T07:46:59.869Z,1001.88
2019-04-27T07:47:59.905Z,1003.68
2019-04-27T07:48:59.843Z,1005.65
2019-04-27T07:50:01.338Z,1006.89
2019-04-27T07:50:59.821Z,1008.43
2019-04-27T07:51:59.824Z,1010.01
2019-04-27T07:52:59.848Z,1011.72
2019-04-27T07:53:59.857Z,1013.52
2019-04-27T07:54:59.849Z,1016.6
2019-04-27T07:55:59.828Z,1021.51
2019-04-27T07:56:59.855Z,1026.63
2019-04-27T07:57:59.933Z,1030.17
2019-04-27T07:58:59.869Z,1033.31
2019-04-27T07:59:59.855Z,1038.45
2019-04-27T08:00:59.854Z,1041.84
2019-04-27T08:01:59.856Z,1046.44
2019-04-27T08:02:59.857Z,1052.64
2019-04-27T08:03:59.860Z,1056.62
2019-04-27T08:04:59.872Z,1059.76
2019-04-27T08:06:04.340Z,1064.77
2019-04-27T08:06:59.859Z,1069.12
2019-04-27T08:08:00.256Z,1072.56
2019-04-27T08:08:59.859Z,1077.83
2019-04-27T08:10:01.421Z,1083.14
2019-04-27T08:10:59.849Z,1086.27
2019-04-27T08:11:59.851Z,1089.21
2019-04-27T08:12:59.886Z,1092.01
2019-04-27T08:13:59.894Z,1097.48
2019-04-27T08:15:00.090Z,1103
2019-04-27T08:15:59.872Z,1105.97
2019-04-27T08:17:01.316Z,1109.17
2019-04-27T08:18:05.128Z,1110.62
2019-04-27T08:19:05.092Z,1114.37
2019-04-27T08:20:05.578Z,1117.29
2019-04-27T08:21:05.185Z,1120.12
2019-04-27T08:22:05.130Z,1122.58
2019-04-27T08:23:05.810Z,1124.52
2019-04-27T08:24:05.284Z,1126.2
2019-04-27T08:25:05.187Z,1127.48
2019-04-27T08:26:05.135Z,1128.43
2019-04-27T08:27:06.061Z,1128.85
2019-04-27T08:28:05.104Z,1129.12
2019-04-27T08:29:06.164Z,1129.58
2019-04-27T08:31:05.195Z,1130.12
2019-04-27T08:32:05.796Z,1130.2
2019-04-27T08:33:05.129Z,1130.37
2019-04-27T08:34:05.126Z,1130.32
2019-04-27T08:35:05.175Z,1130.37
2019-04-27T08:36:05.147Z,1130.43
2019-04-27T08:37:05.135Z,1130.34
2019-04-27T08:38:08.853Z,1130.24
2019-04-27T08:39:05.140Z,1130.07
2019-04-27T08:40:05.186Z,1129.51
2019-04-27T08:41:06.002Z,1129.4
2019-04-27T08:42:11.919Z,1129.48
2019-04-27T08:43:06.127Z,1129.69
2019-04-27T08:44:06.297Z,1129.5
2019-04-27T08:45:06.038Z,1129.29
2019-04-27T08:46:05.910Z,1129.48
2019-04-27T08:47:05.814Z,1129.62
2019-04-27T08:48:05.156Z,1129.38
2019-04-27T08:49:05.146Z,1128.56
2019-04-27T08:50:05.229Z,1128.74
2019-04-27T08:51:05.709Z,1128.81
2019-04-27T08:52:05.215Z,1128.62
2019-04-27T08:53:05.169Z,1128.37
2019-04-27T08:54:05.180Z,1127.85
2019-04-27T08:55:05.184Z,1127.11
2019-04-27T08:56:05.147Z,1127.15
2019-04-27T08:57:05.172Z,1126.97
2019-04-27T08:58:05.209Z,1125.77
2019-04-27T08:59:05.175Z,1125.17
2019-04-27T09:00:05.186Z,1125.41
2019-04-27T09:01:07.871Z,1123.9
2019-04-27T09:02:05.176Z,1122.11
2019-04-27T09:03:05.158Z,1121.04
2019-04-27T09:04:05.159Z,1119.24
2019-04-27T09:05:05.256Z,1117.3
2019-04-27T09:06:05.176Z,1115.5
2019-04-27T09:07:05.192Z,1113.86
2019-04-27T09:08:05.196Z,1111.87
2019-04-27T09:09:05.191Z,1110.87
2019-04-27T09:10:05.231Z,1113.35
2019-04-27T09:11:05.212Z,1115.15
2019-04-27T09:12:05.213Z,1115.64
2019-04-27T09:13:05.197Z,1118.5
2019-04-27T09:14:05.203Z,1118.41
2019-04-27T09:15:05.217Z,1117.29
2019-04-27T09:16:05.200Z,1116.53
2019-04-27T09:17:05.182Z,1116.04
2019-04-27T09:18:05.216Z,1115.42
2019-04-27T09:19:05.237Z,1114.77
2019-04-27T09:20:05.228Z,1114.31
2019-04-27T09:21:05.186Z,1113.57
2019-04-27T09:22:13.243Z,1112.75
2019-04-27T09:23:05.254Z,1111.9
2019-04-27T09:24:05.198Z,1109.88
2019-04-27T09:25:05.260Z,1107.21
2019-04-27T09:26:05.203Z,1104.08
2019-04-27T09:27:05.585Z,1100.54
2019-04-27T09:28:05.198Z,1097.82
2019-04-27T09:29:05.223Z,1099.5
2019-04-27T09:30:05.226Z,1096.45
2019-04-27T09:31:05.233Z,1100.12
2019-04-27T09:32:05.217Z,1103.85
2019-04-27T09:33:05.212Z,1106.81
2019-04-27T09:34:05.617Z,1109.24
2019-04-27T09:35:05.864Z,1111.55
2019-04-27T09:36:06.088Z,1113.54
2019-04-27T09:37:06.079Z,1115.46
2019-04-27T09:38:06.880Z,1117.48
2019-04-27T09:39:06.240Z,1119.2
2019-04-27T09:40:06.259Z,1120.72
2019-04-27T09:41:07.143Z,1122.07
2019-04-27T09:42:06.464Z,1123.27
2019-04-27T09:43:05.250Z,1124.2
2019-04-27T09:44:05.849Z,1125.05
2019-04-27T09:45:06.621Z,1125.9
2019-04-27T09:46:05.785Z,1126.79
2019-04-27T09:47:06.080Z,1127.6
2019-04-27T09:48:06.625Z,1128.05
2019-04-27T09:49:05.262Z,1127.25
2019-04-27T09:50:05.748Z,1127.99
2019-04-27T09:51:06.399Z,1128.52
2019-04-27T09:52:06.282Z,1127.56
2019-04-27T09:53:06.341Z,1125.78
2019-04-27T09:54:05.845Z,1126.46
2019-04-27T09:55:06.527Z,1127.17
2019-04-27T09:56:05.816Z,1127.69
2019-04-27T09:57:06.904Z,1128.1
2019-04-27T09:58:05.738Z,1128.38
2019-04-27T09:59:06.383Z,1128.67
2019-04-27T10:00:06.350Z,1128.95
2019-04-27T10:01:06.602Z,1129.08
2019-04-27T10:02:05.258Z,1128.93
2019-04-27T10:03:06.554Z,1129.08
2019-04-27T10:04:05.276Z,1129.12
2019-04-27T10:05:05.969Z,1129.32
2019-04-27T10:06:05.870Z,1129.37
2019-04-27T10:07:06.185Z,1129.34
2019-04-27T10:08:06.145Z,1129.24
2019-04-27T10:09:06.564Z,1129.16
2019-04-27T10:10:06.418Z,1129.09
2019-04-27T10:11:05.917Z,1129.02
2019-04-27T10:12:07.109Z,1128.93
2019-04-27T10:13:06.966Z,1128.78
2019-04-27T10:14:05.881Z,1128.6
2019-04-27T10:15:06.103Z,1128.56
2019-04-27T10:16:05.355Z,1128.39
2019-04-27T10:17:05.356Z,1128.35
2019-04-27T10:18:06.046Z,1128.34
2019-04-27T10:19:05.309Z,1128.29
2019-04-27T10:20:05.940Z,1128.26
2019-04-27T10:21:06.325Z,1128.21
2019-04-27T10:22:05.774Z,1128.35
2019-04-27T10:23:06.200Z,1128.26
2019-04-27T10:24:06.587Z,1128.24
2019-04-27T10:25:05.349Z,1128.39
2019-04-27T10:26:05.817Z,1128.55
2019-04-27T10:27:05.495Z,1128.38
2019-04-27T10:28:06.698Z,1128.13
2019-04-27T10:29:06.152Z,1127.95
2019-04-27T10:30:05.770Z,1127.84
2019-04-27T10:31:07.012Z,1127.64
2019-04-27T10:32:06.196Z,1127.54
2019-04-27T10:33:05.940Z,1127.45
2019-04-27T10:34:05.962Z,1127.41
2019-04-27T10:35:05.470Z,1127.35
2019-04-27T10:36:06.450Z,1127.34
2019-04-27T10:37:06.022Z,1127.3
2019-04-27T10:38:05.346Z,1127.57
2019-04-27T10:39:05.805Z,1128.6
2019-04-27T10:40:06.036Z,1128.93
2019-04-27T10:41:05.622Z,1128.77
2019-04-27T10:42:06.696Z,1128.05
2019-04-27T10:43:06.246Z,1127.11
2019-04-27T10:44:05.760Z,1126.62
2019-04-27T10:45:06.376Z,1125.01
2019-04-27T10:46:06.636Z,1124.66
2019-04-27T10:47:05.845Z,1125.04
2019-04-27T10:48:05.388Z,1125.63
2019-04-27T10:49:05.858Z,1125.2
2019-04-27T10:50:05.856Z,1125.1
2019-04-27T10:51:07.019Z,1125.54
2019-04-27T10:52:05.848Z,1125.94
2019-04-27T10:53:06.889Z,1126.25
2019-04-27T10:54:05.392Z,1126.67
2019-04-27T10:55:05.945Z,1126.88
2019-04-27T10:56:05.387Z,1126.8
2019-04-27T10:57:06.044Z,1126.45
2019-04-27T10:58:05.378Z,1125.57
2019-04-27T10:59:06.226Z,1125.92
2019-04-27T11:00:06.667Z,1126.28
2019-04-27T11:01:05.637Z,1126.64
2019-04-27T11:02:05.726Z,1127.15
2019-04-27T11:03:06.601Z,1127.66
2019-04-27T11:04:05.922Z,1128.04
2019-04-27T11:05:06.772Z,1128.17
2019-04-27T11:06:05.896Z,1128.19
2019-04-27T11:07:05.424Z,1128.1
2019-04-27T11:08:06.571Z,1127.66
2019-04-27T11:09:05.987Z,1127.42
2019-04-27T11:10:05.585Z,1126.69
2019-04-27T11:11:05.384Z,1127.06
2019-04-27T11:12:06.848Z,1127.43
2019-04-27T11:13:06.216Z,1127.65
2019-04-27T11:14:06.839Z,1127.82
2019-04-27T11:15:05.813Z,1127.92
2019-04-27T11:16:05.408Z,1127.65
2019-04-27T11:17:06.251Z,1126.97
2019-04-27T11:18:06.311Z,1127.17
2019-04-27T11:19:06.545Z,1127.34
2019-04-27T11:20:05.451Z,1127.47
2019-04-27T11:21:05.799Z,1127.52
2019-04-27T11:22:07.045Z,1127.69
2019-04-27T11:23:07.597Z,1127.82
2019-04-27T11:24:05.435Z,1127.97
2019-04-27T11:25:06.205Z,1128.18
2019-04-27T11:26:07.242Z,1128.3
2019-04-27T11:27:05.886Z,1128.43
2019-04-27T11:28:05.820Z,1128.54
2019-04-27T11:29:05.407Z,1128.51
2019-04-27T11:30:06.690Z,1128.51
2019-04-27T11:31:05.419Z,1128.44
2019-04-27T11:32:05.784Z,1128.22
2019-04-27T11:33:06.217Z,1128.07
2019-04-27T11:34:06.656Z,1127.95
2019-04-27T11:35:05.783Z,1127.79
2019-04-27T11:36:06.263Z,1127.63
2019-04-27T11:37:05.575Z,1127.42
2019-04-27T11:38:05.635Z,1127.24
2019-04-27T11:39:05.448Z,1127.27
2019-04-27T11:40:05.478Z,1127.47
2019-04-27T11:41:05.425Z,1127.38
2019-04-27T11:42:05.429Z,1127.23
2019-04-27T11:43:05.894Z,1127.22
2019-04-27T11:44:05.812Z,1127.12
2019-04-27T11:45:06.550Z,1126.91
2019-04-27T11:46:06.136Z,1126.89
2019-04-27T11:47:05.987Z,1126.78
2019-04-27T11:48:05.829Z,1126.52
2019-04-27T11:49:06.751Z,1126.33
2019-04-27T11:50:06.338Z,1126.15
2019-04-27T11:51:06.977Z,1126.2
2019-04-27T11:52:05.839Z,1126.55
2019-04-27T11:53:06.158Z,1126.32
2019-04-27T11:54:05.485Z,1126.01
2019-04-27T11:55:05.810Z,1125.81
2019-04-27T11:56:05.453Z,1125.55
2019-04-27T11:57:05.477Z,1125.19
2019-04-27T11:58:06.511Z,1124.96
2019-04-27T11:59:07.008Z,1124.63
2019-04-27T12:00:07.337Z,1124.37
2019-04-27T12:01:06.730Z,1124.87
2019-04-27T12:02:05.487Z,1125.21
2019-04-27T12:03:06.724Z,1126.31
2019-04-27T12:04:05.890Z,1127.4
2019-04-27T12:05:07.627Z,1128.07
2019-04-27T12:06:05.497Z,1128.21
2019-04-27T12:07:06.512Z,1128.01
2019-04-27T12:08:06.238Z,1127.81
2019-04-27T12:09:05.494Z,1127.35
2019-04-27T12:10:05.766Z,1127.01
2019-04-27T12:11:05.953Z,1126.77
2019-04-27T12:12:13.432Z,1127
2019-04-27T12:13:07.516Z,1127.18
2019-04-27T12:14:06.177Z,1127.24
2019-04-27T12:15:05.821Z,1126.39
2019-04-27T12:16:05.503Z,1126.48
2019-04-27T12:17:06.319Z,1126.8
2019-04-27T12:18:08.788Z,1127.09
2019-04-27T12:19:06.511Z,1127.34
2019-04-27T12:20:05.551Z,1127.49
2019-04-27T12:21:06.114Z,1127.73
2019-04-27T12:22:06.240Z,1127.84
2019-04-27T12:23:06.489Z,1127.82
2019-04-27T12:24:05.511Z,1127.83